Time;durP1;ratioP1;P1;durP2;ratioP2;P2;SDS_P1;SDS_P2;PMS_P1;PMS_P2;Temp;Humidity;BMP_temperature;BMP_pressure;BME280_temperature;BME280_humidity;BME280_pressure;Samples;Min_cycle;Max_cycle;Signal;HPM_P1;HPM_P2
2023/11/25 00:02:12;;;;;;;;;6.00;5.00;;;;;;;;5074082;28;45421;-73
2023/11/25 00:04:37;;;;;;;;;6.50;5.25;;;;;;;;5072220;27;45484;-72
2023/11/25 00:07:02;;;;;;;;;7.75;4.00;;;;;;;;5070633;27;45700;-72
2023/11/25 00:09:27;;;;;;;;;11.25;5.75;;;;;;;;5073139;27;45599;-71
2023/11/25 00:11:53;;;;;;;;;9.75;5.25;;;;;;;;5074612;27;45321;-72
2023/11/25 00:14:20;;;;;;;;;7.00;4.33;;;;;;;;5075944;27;45312;-71
2023/11/25 00:16:45;;;;;;;;;6.75;5.50;;;;;;;;5073673;27;45548;-71
2023/11/25 00:19:10;;;;;;;;;6.00;4.50;;;;;;;;5073399;27;45737;-72
2023/11/25 00:21:36;;;;;;;;;7.75;3.50;;;;;;;;5072067;27;45223;-72
2023/11/25 00:24:01;;;;;;;;;4.50;3.00;;;;;;;;5074836;27;45374;-72
2023/11/25 00:26:26;;;;;;;;;1.00;0.00;;;;;;;;5068317;27;46617;-71
2023/11/25 00:28:51;;;;;;;;;5.00;4.50;;;;;;;;5071585;28;45544;-73
2023/11/25 00:31:16;;;;;;;;;4.33;2.67;;;;;;;;5072817;27;45444;-71
2023/11/25 00:33:42;;;;;;;;;3.00;3.00;;;;;;;;5073184;27;45952;-72
2023/11/25 00:36:07;;;;;;;;;6.50;5.00;;;;;;;;5073069;27;45525;-72
2023/11/25 00:38:33;;;;;;;;;5.50;4.50;;;;;;;;5075089;28;46940;-71
2023/11/25 00:40:58;;;;;;;;;4.50;4.50;;;;;;;;5070245;27;45626;-72
2023/11/25 00:43:23;;;;;;;;;3.50;3.00;;;;;;;;5070199;28;45274;-72
2023/11/25 00:45:49;;;;;;;;;6.00;3.00;;;;;;;;5071534;27;45549;-73
2023/11/25 00:48:15;;;;;;;;;7.75;5.75;;;;;;;;5072736;28;46827;-72
2023/11/25 00:50:41;;;;;;;;;5.00;5.00;;;;;;;;5070610;28;45212;-72
2023/11/25 00:53:07;;;;;;;;;4.00;2.50;;;;;;;;5074019;27;45448;-72
2023/11/25 00:55:32;;;;;;;;;8.25;4.50;;;;;;;;5073635;28;45368;-72
2023/11/25 00:57:58;;;;;;;;;4.50;3.00;;;;;;;;5069972;27;47351;-72
2023/11/25 01:00:26;;;;;;;;;3.25;3.25;;;;;;;;5074667;28;45474;-73
2023/11/25 01:02:51;;;;;;;;;2.75;2.75;;;;;;;;5078221;28;45524;-72
2023/11/25 01:05:16;;;;;;;;;7.00;3.00;;;;;;;;5077008;28;45461;-72
2023/11/25 01:07:41;;;;;;;;;5.00;2.50;;;;;;;;5077021;27;46478;-73
2023/11/25 01:10:07;;;;;;;;;3.00;3.00;;;;;;;;5078036;27;45398;-72
2023/11/25 01:12:34;;;;;;;;;6.00;1.25;;;;;;;;5072763;28;46432;-72
2023/11/25 01:15:00;;;;;;;;;7.00;3.00;;;;;;;;5077029;28;45372;-71
2023/11/25 01:17:26;;;;;;;;;8.50;4.00;;;;;;;;5076160;27;47143;-71
2023/11/25 01:19:52;;;;;;;;;2.25;2.25;;;;;;;;5073371;28;45389;-73
2023/11/25 01:22:17;;;;;;;;;1.25;1.25;;;;;;;;5077732;28;45524;-72
2023/11/25 01:24:42;;;;;;;;;8.00;4.50;;;;;;;;5077008;28;45592;-73
2023/11/25 01:27:08;;;;;;;;;1.75;1.75;;;;;;;;5073494;27;46379;-72
2023/11/25 01:29:33;;;;;;;;;5.67;2.67;;;;;;;;5076556;27;45461;-72
2023/11/25 01:31:59;;;;;;;;;8.67;2.33;;;;;;;;5076631;27;45503;-73
2023/11/25 01:34:24;;;;;;;;;2.00;2.00;;;;;;;;5076031;28;45598;-73
2023/11/25 01:36:50;;;;;;;;;5.00;3.00;;;;;;;;5072438;27;46056;-73
2023/11/25 01:39:15;;;;;;;;;7.00;3.00;;;;;;;;5069105;28;45290;-72
2023/11/25 01:41:40;;;;;;;;;3.67;1.67;;;;;;;;5077007;27;45563;-72
2023/11/25 01:44:07;;;;;;;;;1.00;1.00;;;;;;;;5071833;28;45401;-72
2023/11/25 01:46:39;;;;;;;;;1.00;0.00;;;;;;;;5068699;28;46645;-73
2023/11/25 01:49:05;;;;;;;;;7.00;3.50;;;;;;;;5073522;28;45615;-72
2023/11/25 01:51:31;;;;;;;;;3.00;2.25;;;;;;;;5075766;27;45563;-73
2023/11/25 01:53:57;;;;;;;;;2.00;2.00;;;;;;;;5078146;27;45390;-72
2023/11/25 01:56:24;;;;;;;;;6.00;2.00;;;;;;;;5076463;27;47319;-72
2023/11/25 01:58:49;;;;;;;;;2.50;2.50;;;;;;;;5077662;28;45455;-72
2023/11/25 02:01:15;;;;;;;;;4.00;2.67;;;;;;;;5074629;27;45436;-72
2023/11/25 02:03:40;;;;;;;;;5.50;2.25;;;;;;;;5070435;28;45755;-72
2023/11/25 02:06:06;;;;;;;;;3.00;1.00;;;;;;;;5072786;28;46436;-72
2023/11/25 02:08:31;;;;;;;;;10.25;1.25;;;;;;;;5077851;27;45358;-73
2023/11/25 02:10:56;;;;;;;;;3.00;3.00;;;;;;;;5076745;27;45199;-73
2023/11/25 02:13:22;;;;;;;;;6.00;2.00;;;;;;;;5076805;27;45573;-73
2023/11/25 02:15:47;;;;;;;;;5.00;1.50;;;;;;;;5075586;28;45837;-72
2023/11/25 02:18:12;;;;;;;;;7.00;2.75;;;;;;;;5069264;28;45865;-73
2023/11/25 02:20:41;;;;;;;;;5.00;2.33;;;;;;;;5077998;27;45591;-72
2023/11/25 02:23:16;;;;;;;;;5.25;3.00;;;;;;;;5073658;27;45572;-73
2023/11/25 02:25:43;;;;;;;;;4.25;2.25;;;;;;;;5076747;27;46326;-72
2023/11/25 02:28:09;;;;;;;;;2.75;2.00;;;;;;;;5076066;27;45489;-72
2023/11/25 02:30:34;;;;;;;;;3.00;3.00;;;;;;;;5074776;27;45514;-72
2023/11/25 02:32:59;;;;;;;;;8.33;3.00;;;;;;;;5076471;27;46506;-72
2023/11/25 02:35:25;;;;;;;;;6.00;2.00;;;;;;;;5072456;28;47642;-71
2023/11/25 02:37:50;;;;;;;;;5.00;3.00;;;;;;;;5073439;28;45294;-72
2023/11/25 02:40:18;;;;;;;;;5.00;3.00;;;;;;;;5075023;27;45227;-73
2023/11/25 02:42:47;;;;;;;;;2.75;2.00;;;;;;;;5075702;27;45455;-71
2023/11/25 02:45:18;;;;;;;;;5.50;1.50;;;;;;;;5072533;28;46298;-71
2023/11/25 02:47:44;;;;;;;;;3.25;2.25;;;;;;;;5071089;28;45326;-72
2023/11/25 02:50:10;;;;;;;;;3.50;2.00;;;;;;;;5075282;28;45459;-73
2023/11/25 02:52:36;;;;;;;;;2.25;2.00;;;;;;;;5068013;27;45406;-72
2023/11/25 02:55:01;;;;;;;;;6.33;2.67;;;;;;;;5075577;28;45758;-72
2023/11/25 02:57:27;;;;;;;;;4.00;2.75;;;;;;;;5070911;28;45434;-72
2023/11/25 02:59:54;;;;;;;;;2.00;2.00;;;;;;;;5077557;27;45452;-72
2023/11/25 03:02:20;;;;;;;;;2.75;2.25;;;;;;;;5076748;27;45279;-73
2023/11/25 03:04:45;;;;;;;;;3.33;3.33;;;;;;;;5076954;27;45262;-72
2023/11/25 03:07:10;;;;;;;;;2.00;2.00;;;;;;;;5076110;27;45458;-71
2023/11/25 03:09:38;;;;;;;;;1.00;1.00;;;;;;;;5077362;27;45318;-73
2023/11/25 03:12:05;;;;;;;;;2.00;2.00;;;;;;;;5074549;28;46845;-73
2023/11/25 03:14:31;;;;;;;;;3.25;1.50;;;;;;;;5077164;28;46616;-71
2023/11/25 03:16:56;;;;;;;;;5.50;2.75;;;;;;;;5075559;27;45334;-72
2023/11/25 03:19:23;;;;;;;;;5.25;2.75;;;;;;;;5074875;27;45219;-73
2023/11/25 03:21:50;;;;;;;;;5.75;2.00;;;;;;;;5075308;27;45491;-72
2023/11/25 03:24:16;;;;;;;;;3.25;2.00;;;;;;;;5075616;27;47327;-72
2023/11/25 03:26:43;;;;;;;;;3.25;3.25;;;;;;;;5071427;27;45531;-71
2023/11/25 03:29:09;;;;;;;;;3.25;2.00;;;;;;;;5073524;28;45476;-73
2023/11/25 03:31:40;;;;;;;;;6.00;2.00;;;;;;;;5075589;27;45435;-73
2023/11/25 03:34:05;;;;;;;;;3.25;3.25;;;;;;;;5069964;28;46541;-73
2023/11/25 03:36:30;;;;;;;;;3.33;2.00;;;;;;;;5072400;27;45581;-72
2023/11/25 03:38:56;;;;;;;;;2.00;2.00;;;;;;;;5075818;27;45270;-72
2023/11/25 03:41:23;;;;;;;;;3.75;2.25;;;;;;;;5076115;28;45349;-72
2023/11/25 03:43:48;;;;;;;;;2.50;2.50;;;;;;;;5071296;27;47402;-72
2023/11/25 03:46:13;;;;;;;;;5.25;1.25;;;;;;;;5074699;27;45480;-73
2023/11/25 03:48:38;;;;;;;;;5.00;2.75;;;;;;;;5071398;28;45394;-71
2023/11/25 03:51:05;;;;;;;;;3.50;3.50;;;;;;;;5073109;28;45503;-72
2023/11/25 03:53:30;;;;;;;;;5.75;3.50;;;;;;;;5072889;28;47490;-72
2023/11/25 03:55:55;;;;;;;;;5.00;2.33;;;;;;;;5075563;27;45491;-72
2023/11/25 03:58:21;;;;;;;;;2.33;2.33;;;;;;;;5072913;27;45432;-73
2023/11/25 04:00:46;;;;;;;;;3.00;3.00;;;;;;;;5076187;27;45508;-71
2023/11/25 04:03:11;;;;;;;;;5.00;2.00;;;;;;;;5074103;27;45488;-72
2023/11/25 04:05:36;;;;;;;;;6.33;2.00;;;;;;;;5067995;28;45389;-72
2023/11/25 04:08:01;;;;;;;;;8.33;5.00;;;;;;;;5074647;27;45430;-71
2023/11/25 04:10:27;;;;;;;;;5.00;3.00;;;;;;;;5075482;27;45505;-72
2023/11/25 04:12:52;;;;;;;;;5.50;2.75;;;;;;;;5075167;28;46581;-71
2023/11/25 04:15:21;;;;;;;;;3.25;2.00;;;;;;;;5075263;27;45284;-73
2023/11/25 04:17:46;;;;;;;;;5.25;1.50;;;;;;;;5065340;28;45528;-71
2023/11/25 04:20:14;;;;;;;;;3.25;1.00;;;;;;;;5076027;27;45544;-71
2023/11/25 04:22:48;;;;;;;;;6.00;5.00;;;;;;;;5075237;27;46544;-72
2023/11/25 04:25:14;;;;;;;;;3.25;2.50;;;;;;;;5071782;27;45373;-72
2023/11/25 04:27:40;;;;;;;;;4.50;3.25;;;;;;;;5075549;28;45464;-71
2023/11/25 04:30:06;;;;;;;;;8.00;4.50;;;;;;;;5068539;27;45630;-72
2023/11/25 04:32:31;;;;;;;;;8.50;2.25;;;;;;;;5069571;28;46149;-71
2023/11/25 04:34:56;;;;;;;;;4.00;4.00;;;;;;;;5069574;27;45421;-72
2023/11/25 04:37:21;;;;;;;;;2.00;2.00;;;;;;;;5079495;28;45322;-71
2023/11/25 04:39:46;;;;;;;;;6.00;3.33;;;;;;;;5077452;27;45514;-71
2023/11/25 04:42:12;;;;;;;;;8.00;5.00;;;;;;;;5078039;28;47430;-72
2023/11/25 04:44:37;;;;;;;;;4.00;4.00;;;;;;;;5076765;27;45413;-72
2023/11/25 04:47:02;;;;;;;;;2.00;2.00;;;;;;;;5075323;27;45428;-71
2023/11/25 04:49:28;;;;;;;;;2.75;2.00;;;;;;;;5076037;27;45440;-71
2023/11/25 04:51:53;;;;;;;;;4.75;2.75;;;;;;;;5074470;27;47298;-70
2023/11/25 04:54:18;;;;;;;;;5.00;3.33;;;;;;;;5078824;27;45634;-72
2023/11/25 04:56:43;;;;;;;;;5.00;3.33;;;;;;;;5071210;28;45414;-71
2023/11/25 04:59:09;;;;;;;;;2.33;2.33;;;;;;;;5074128;28;45711;-71
2023/11/25 05:01:34;;;;;;;;;3.33;3.33;;;;;;;;5074807;27;45418;-71
2023/11/25 05:03:59;;;;;;;;;5.50;3.25;;;;;;;;5074410;28;45426;-70
2023/11/25 05:06:24;;;;;;;;;8.00;6.00;;;;;;;;5077458;27;45473;-72
2023/11/25 05:08:49;;;;;;;;;5.67;3.33;;;;;;;;5079238;28;45230;-72
2023/11/25 05:11:15;;;;;;;;;7.67;3.33;;;;;;;;5078936;27;45413;-71
2023/11/25 05:13:40;;;;;;;;;4.75;4.50;;;;;;;;5077295;28;46377;-72
2023/11/25 05:16:05;;;;;;;;;3.67;3.00;;;;;;;;5074027;28;45318;-71
2023/11/25 05:18:31;;;;;;;;;7.75;3.25;;;;;;;;5075142;27;45365;-71
2023/11/25 05:20:56;;;;;;;;;6.00;2.00;;;;;;;;5076575;27;46759;-72
2023/11/25 05:23:22;;;;;;;;;3.00;2.50;;;;;;;;5073859;28;45322;-71
2023/11/25 05:25:47;;;;;;;;;6.33;3.33;;;;;;;;5077149;28;45364;-72
2023/11/25 05:28:12;;;;;;;;;10.00;3.75;;;;;;;;5077646;28;45404;-70
2023/11/25 05:30:37;;;;;;;;;10.00;3.67;;;;;;;;5076197;27;45500;-71
2023/11/25 05:33:02;;;;;;;;;5.00;5.00;;;;;;;;5077203;27;45505;-72
2023/11/25 05:35:28;;;;;;;;;6.00;3.00;;;;;;;;5073052;27;45210;-71
2023/11/25 05:37:53;;;;;;;;;2.33;2.00;;;;;;;;5077087;27;45506;-72
2023/11/25 05:40:18;;;;;;;;;3.33;3.33;;;;;;;;5075572;27;46253;-72
2023/11/25 05:42:47;;;;;;;;;5.00;3.00;;;;;;;;5074888;28;45440;-71
2023/11/25 05:45:12;;;;;;;;;5.50;2.25;;;;;;;;5077659;27;45448;-71
2023/11/25 05:47:37;;;;;;;;;4.50;2.00;;;;;;;;5068715;27;45279;-71
2023/11/25 05:50:03;;;;;;;;;3.67;1.67;;;;;;;;5075988;27;46430;-71
2023/11/25 05:52:29;;;;;;;;;3.50;3.50;;;;;;;;5070129;27;45471;-71
2023/11/25 05:54:55;;;;;;;;;10.00;3.25;;;;;;;;5076815;28;45616;-71
2023/11/25 05:57:20;;;;;;;;;5.00;2.25;;;;;;;;5072285;27;45207;-71
2023/11/25 05:59:46;;;;;;;;;4.00;2.25;;;;;;;;5076079;27;46179;-72
2023/11/25 06:02:11;;;;;;;;;7.25;3.25;;;;;;;;5078011;27;45288;-71
2023/11/25 06:04:36;;;;;;;;;2.00;2.00;;;;;;;;5077847;28;45327;-72
2023/11/25 06:07:02;;;;;;;;;5.50;3.25;;;;;;;;5078074;27;45320;-71
2023/11/25 06:09:27;;;;;;;;;3.50;2.00;;;;;;;;5078285;28;45474;-71
2023/11/25 06:11:53;;;;;;;;;2.00;2.00;;;;;;;;5077223;28;45445;-71
2023/11/25 06:14:19;;;;;;;;;6.25;2.00;;;;;;;;5078218;27;46003;-72
2023/11/25 06:16:45;;;;;;;;;4.25;2.00;;;;;;;;5077890;28;45560;-72
2023/11/25 06:19:10;;;;;;;;;2.00;2.00;;;;;;;;5077373;27;46444;-70
2023/11/25 06:21:36;;;;;;;;;3.25;2.00;;;;;;;;5077329;27;45664;-72
2023/11/25 06:24:04;;;;;;;;;4.25;2.00;;;;;;;;5075508;28;45291;-71
2023/11/25 06:26:29;;;;;;;;;3.00;2.25;;;;;;;;5078095;27;45433;-71
2023/11/25 06:28:55;;;;;;;;;7.00;2.75;;;;;;;;5068229;28;45622;-71
2023/11/25 06:31:21;;;;;;;;;5.50;3.00;;;;;;;;5076087;27;45433;-72
2023/11/25 06:33:46;;;;;;;;;6.75;2.50;;;;;;;;5075229;28;45438;-72
2023/11/25 06:36:12;;;;;;;;;5.25;2.00;;;;;;;;5073135;27;45428;-71
2023/11/25 06:38:37;;;;;;;;;3.50;3.50;;;;;;;;5076843;28;45787;-70
2023/11/25 06:41:02;;;;;;;;;3.75;2.00;;;;;;;;5076714;28;45218;-71
2023/11/25 06:43:28;;;;;;;;;6.00;5.00;;;;;;;;5077560;27;45442;-71
2023/11/25 06:45:53;;;;;;;;;1.50;1.00;;;;;;;;5072568;27;45649;-72
2023/11/25 06:48:19;;;;;;;;;1.00;1.00;;;;;;;;5073300;28;45682;-72
2023/11/25 06:50:44;;;;;;;;;3.25;3.00;;;;;;;;5074476;27;45314;-71
2023/11/25 06:53:09;;;;;;;;;3.67;3.67;;;;;;;;5071744;27;45451;-71
2023/11/25 06:55:34;;;;;;;;;5.33;2.67;;;;;;;;5070224;27;46419;-73
2023/11/25 06:57:59;;;;;;;;;7.00;3.00;;;;;;;;5075921;28;45341;-71
2023/11/25 07:00:25;;;;;;;;;5.00;2.25;;;;;;;;5075934;27;45497;-71
2023/11/25 07:02:50;;;;;;;;;3.25;3.25;;;;;;;;5069256;27;45354;-72
2023/11/25 07:05:15;;;;;;;;;9.33;3.67;;;;;;;;5075733;28;45322;-72
2023/11/25 07:07:41;;;;;;;;;4.75;4.75;;;;;;;;5076205;27;45747;-71
2023/11/25 07:10:09;;;;;;;;;2.00;2.00;;;;;;;;5068207;28;45537;-70
2023/11/25 07:12:36;;;;;;;;;8.50;2.75;;;;;;;;5076045;28;45410;-70
2023/11/25 07:15:02;;;;;;;;;3.25;3.25;;;;;;;;5065946;27;45460;-70
2023/11/25 07:17:27;;;;;;;;;6.50;2.25;;;;;;;;5074456;27;46560;-70
2023/11/25 07:19:52;;;;;;;;;5.75;4.00;;;;;;;;5074738;27;45444;-69
2023/11/25 07:22:18;;;;;;;;;3.33;3.33;;;;;;;;5074958;28;45698;-71
2023/11/25 07:24:46;;;;;;;;;9.33;3.33;;;;;;;;5076360;27;45518;-70
2023/11/25 07:27:11;;;;;;;;;5.75;3.25;;;;;;;;5074424;27;45790;-69
2023/11/25 07:29:36;;;;;;;;;7.67;3.67;;;;;;;;5072249;27;45406;-70
2023/11/25 07:32:02;;;;;;;;;9.00;4.00;;;;;;;;5074063;27;45317;-70
2023/11/25 07:34:31;;;;;;;;;6.75;4.75;;;;;;;;5075650;27;45501;-70
2023/11/25 07:36:56;;;;;;;;;6.00;5.00;;;;;;;;5065995;27;46736;-70
2023/11/25 07:39:22;;;;;;;;;10.75;2.00;;;;;;;;5073324;27;45330;-70
2023/11/25 07:41:54;;;;;;;;;6.00;5.00;;;;;;;;5075236;27;45314;-70
2023/11/25 07:44:20;;;;;;;;;12.50;5.00;;;;;;;;5074506;28;45604;-70
2023/11/25 07:46:45;;;;;;;;;3.25;2.75;;;;;;;;5073583;27;47265;-70
2023/11/25 07:49:10;;;;;;;;;10.00;5.00;;;;;;;;5065967;28;45471;-70
2023/11/25 07:51:36;;;;;;;;;5.25;3.75;;;;;;;;5160843;22;46607;-70
2023/11/25 07:54:03;;;;;;;;;6.00;5.00;;;;;;;;5035052;28;45533;-70
2023/11/25 07:56:28;;;;;;;;;4.75;4.75;;;;;;;;5033576;28;46624;-69
2023/11/25 07:58:53;;;;;;;;;7.00;5.00;;;;;;;;5029977;28;45435;-70
2023/11/25 08:01:18;;;;;;;;;6.00;4.75;;;;;;;;5029971;28;45525;-70
2023/11/25 08:03:44;;;;;;;;;14.00;7.33;;;;;;;;5031351;28;45556;-70
2023/11/25 08:06:09;;;;;;;;;12.33;5.00;;;;;;;;5034897;28;47484;-70
2023/11/25 08:08:35;;;;;;;;;5.00;5.00;;;;;;;;5030388;28;45466;-71
2023/11/25 08:11:00;;;;;;;;;10.67;5.00;;;;;;;;5029099;28;45368;-73
2023/11/25 08:13:26;;;;;;;;;6.00;5.00;;;;;;;;5029724;28;45685;-72
2023/11/25 08:15:51;;;;;;;;;7.50;5.75;;;;;;;;5033968;28;47018;-72
2023/11/25 08:18:18;;;;;;;;;9.25;8.25;;;;;;;;5034749;28;45324;-72
2023/11/25 08:20:43;;;;;;;;;9.25;4.25;;;;;;;;5032290;28;45583;-72
2023/11/25 08:23:09;;;;;;;;;7.50;6.50;;;;;;;;5035053;28;45406;-72
2023/11/25 08:25:34;;;;;;;;;9.00;6.00;;;;;;;;5034509;28;45830;-74
2023/11/25 08:28:00;;;;;;;;;8.33;6.00;;;;;;;;5029931;28;45455;-70
2023/11/25 08:30:25;;;;;;;;;5.67;5.33;;;;;;;;5030621;28;45458;-73
2023/11/25 08:32:50;;;;;;;;;13.50;6.00;;;;;;;;5029509;28;45414;-75
2023/11/25 08:35:15;;;;;;;;;11.00;6.75;;;;;;;;5031572;28;45545;-74
2023/11/25 08:37:41;;;;;;;;;9.00;6.25;;;;;;;;5030600;28;45532;-71
2023/11/25 08:42:36;;;;;;;;;13.50;9.75;;;;;;;;5195916;22;46998;-73
2023/11/25 08:45:02;;;;;;;;;12.75;9.00;;;;;;;;5100351;27;45431;-73
2023/11/25 08:47:28;;;;;;;;;7.75;6.00;;;;;;;;5099200;27;45458;-73
2023/11/25 08:49:53;;;;;;;;;7.50;5.00;;;;;;;;5094585;27;45392;-72
2023/11/25 08:52:19;;;;;;;;;10.67;6.00;;;;;;;;5092553;27;45442;-72
2023/11/25 08:54:48;;;;;;;;;6.00;6.00;;;;;;;;5098646;27;45746;-72
2023/11/25 08:57:15;;;;;;;;;12.00;6.75;;;;;;;;5093948;27;45604;-71
2023/11/25 08:59:40;;;;;;;;;6.75;6.25;;;;;;;;5096166;27;46052;-73
2023/11/25 09:02:05;;;;;;;;;8.00;8.00;;;;;;;;5089763;27;45476;-69
2023/11/25 09:04:35;;;;;;;;;9.50;9.00;;;;;;;;5093399;27;45711;-74
2023/11/25 09:07:00;;;;;;;;;6.50;5.00;;;;;;;;5094409;27;45426;-71
2023/11/25 09:09:26;;;;;;;;;13.00;10.00;;;;;;;;5094883;27;45680;-74
2023/11/25 09:11:53;;;;;;;;;7.00;6.75;;;;;;;;5089166;27;45477;-74
2023/11/25 09:14:19;;;;;;;;;12.75;9.00;;;;;;;;5087529;27;46514;-73
2023/11/25 09:16:44;;;;;;;;;6.00;3.25;;;;;;;;5092344;27;45463;-74
2023/11/25 09:19:11;;;;;;;;;13.00;10.00;;;;;;;;5094456;27;45219;-73
2023/11/25 09:21:36;;;;;;;;;9.25;6.00;;;;;;;;5096043;27;46365;-73
2023/11/25 09:24:02;;;;;;;;;14.00;6.00;;;;;;;;5101697;27;46221;-74
2023/11/25 09:26:27;;;;;;;;;13.00;9.00;;;;;;;;5096899;27;45676;-73
2023/11/25 09:28:55;;;;;;;;;5.50;5.50;;;;;;;;5096238;27;45389;-73
2023/11/25 09:31:20;;;;;;;;;6.25;5.00;;;;;;;;5096777;27;45472;-73
2023/11/25 09:33:46;;;;;;;;;10.25;6.50;;;;;;;;5099947;27;46260;-72
2023/11/25 09:36:12;;;;;;;;;11.50;6.50;;;;;;;;5098192;27;45465;-73
2023/11/25 09:38:37;;;;;;;;;11.75;6.75;;;;;;;;5102768;27;45242;-73
2023/11/25 09:41:03;;;;;;;;;4.25;3.00;;;;;;;;5099404;27;45291;-72
2023/11/25 09:43:29;;;;;;;;;4.50;3.00;;;;;;;;5100079;27;45575;-73
2023/11/25 09:45:54;;;;;;;;;8.25;6.25;;;;;;;;5099099;27;45378;-73
2023/11/25 09:48:19;;;;;;;;;7.50;6.00;;;;;;;;5098632;27;45443;-74
2023/11/25 09:50:45;;;;;;;;;9.00;5.00;;;;;;;;5098710;27;45358;-73
2023/11/25 09:53:12;;;;;;;;;11.00;6.00;;;;;;;;5097798;27;47394;-73
2023/11/25 09:55:38;;;;;;;;;8.25;6.00;;;;;;;;5097778;27;45358;-73
2023/11/25 09:58:06;;;;;;;;;6.00;5.00;;;;;;;;5102530;27;46868;-72
2023/11/25 10:00:32;;;;;;;;;6.50;5.25;;;;;;;;5097488;27;45226;-73
2023/11/25 10:02:59;;;;;;;;;10.75;9.25;;;;;;;;5098867;27;46715;-74
2023/11/25 10:05:24;;;;;;;;;7.00;6.75;;;;;;;;5097884;27;45477;-72
2023/11/25 10:07:50;;;;;;;;;11.75;10.50;;;;;;;;5105600;27;45432;-74
2023/11/25 10:10:23;;;;;;;;;7.00;5.75;;;;;;;;5098150;27;45237;-74
2023/11/25 10:12:49;;;;;;;;;6.75;3.00;;;;;;;;5096781;27;46630;-74
2023/11/25 10:15:14;;;;;;;;;11.25;5.00;;;;;;;;5096599;27;46143;-75
2023/11/25 10:17:42;;;;;;;;;3.00;3.00;;;;;;;;5097993;27;45459;-73
2023/11/25 10:20:18;;;;;;;;;7.25;6.75;;;;;;;;5095997;27;45553;-73
2023/11/25 10:22:54;;;;;;;;;9.75;3.50;;;;;;;;5097340;27;45404;-71
2023/11/25 10:25:20;;;;;;;;;4.50;1.75;;;;;;;;5096387;27;46411;-73
2023/11/25 10:27:46;;;;;;;;;4.50;3.00;;;;;;;;5100415;27;45433;-73
2023/11/25 10:30:12;;;;;;;;;9.75;2.75;;;;;;;;5098151;27;45562;-73
2023/11/25 10:32:38;;;;;;;;;6.00;5.00;;;;;;;;5093468;27;47732;-73
2023/11/25 10:35:03;;;;;;;;;6.25;5.00;;;;;;;;5096235;27;45495;-73
2023/11/25 10:37:31;;;;;;;;;7.50;4.00;;;;;;;;5096412;27;45452;-73
2023/11/25 10:39:57;;;;;;;;;5.50;2.50;;;;;;;;5096599;27;45418;-73
2023/11/25 10:42:22;;;;;;;;;4.50;2.75;;;;;;;;5081191;27;47518;-73
2023/11/25 10:44:48;;;;;;;;;6.00;5.00;;;;;;;;5093503;27;45471;-73
2023/11/25 10:47:32;;;;;;;;;6.00;4.50;;;;;;;;5097259;27;45441;-73
2023/11/25 10:50:03;;;;;;;;;3.00;2.00;;;;;;;;5095656;27;45524;-73
2023/11/25 10:52:32;;;;;;;;;7.00;3.00;;;;;;;;5094567;27;45487;-73
2023/11/25 10:54:58;;;;;;;;;10.25;5.25;;;;;;;;5095728;27;45782;-74
2023/11/25 10:57:23;;;;;;;;;11.00;3.00;;;;;;;;5100400;27;45559;-73
2023/11/25 10:59:54;;;;;;;;;4.50;4.00;;;;;;;;5097180;27;45389;-73
2023/11/25 11:02:25;;;;;;;;;3.00;2.00;;;;;;;;5098589;27;46385;-75
2023/11/25 11:04:56;;;;;;;;;2.25;2.00;;;;;;;;5099369;27;45414;-73
2023/11/25 11:07:22;;;;;;;;;6.00;2.00;;;;;;;;5099353;27;45368;-73
2023/11/25 11:09:49;;;;;;;;;5.50;3.25;;;;;;;;5104575;27;45552;-73
2023/11/25 11:12:28;;;;;;;;;7.75;3.50;;;;;;;;5095651;27;46438;-73
2023/11/25 11:14:58;;;;;;;;;6.75;6.75;;;;;;;;5102836;27;46174;-71
2023/11/25 11:17:29;;;;;;;;;7.00;1.75;;;;;;;;5095113;27;45442;-71
2023/11/25 11:19:58;;;;;;;;;10.50;6.25;;;;;;;;5097854;27;45378;-72
2023/11/25 11:22:23;;;;;;;;;8.00;6.25;;;;;;;;5096514;27;45481;-72
2023/11/25 11:24:48;;;;;;;;;11.33;9.00;;;;;;;;5093574;27;45376;-72
2023/11/25 11:27:21;;;;;;;;;7.33;3.67;;;;;;;;5094926;27;45606;-70
2023/11/25 11:29:48;;;;;;;;;2.50;2.50;;;;;;;;5093806;27;45555;-72
2023/11/25 11:32:18;;;;;;;;;7.00;2.50;;;;;;;;5078697;27;48287;-71
2023/11/25 11:34:44;;;;;;;;;6.75;2.50;;;;;;;;5101927;27;45738;-72
2023/11/25 11:37:10;;;;;;;;;4.67;2.00;;;;;;;;5096143;27;45404;-71
2023/11/25 11:39:50;;;;;;;;;5.75;3.75;;;;;;;;5103977;27;45460;-71
2023/11/25 11:42:29;;;;;;;;;2.25;2.00;;;;;;;;5097194;27;45667;-72
2023/11/25 11:47:55;;;;;;;;;1.00;1.00;;;;;;;;5087716;27;45184;-71
2023/11/25 11:50:21;;;;;;;;;3.00;1.00;;;;;;;;5096788;27;45413;-72
2023/11/25 11:52:47;;;;;;;;;3.00;3.00;;;;;;;;5096496;27;47656;-72
2023/11/25 11:55:31;;;;;;;;;3.67;2.00;;;;;;;;5096313;27;45310;-69
2023/11/25 11:58:12;;;;;;;;;2.00;2.00;;;;;;;;5099237;27;45221;-70
2023/11/25 12:00:40;;;;;;;;;3.33;2.00;;;;;;;;5095957;27;45517;-70
2023/11/25 12:03:06;;;;;;;;;3.00;1.25;;;;;;;;5093584;27;45556;-70
2023/11/25 12:05:31;;;;;;;;;1.67;1.67;;;;;;;;5084693;27;45497;-69
2023/11/25 12:07:56;;;;;;;;;5.00;2.00;;;;;;;;5099133;27;45385;-70
2023/11/25 12:10:22;;;;;;;;;4.00;2.75;;;;;;;;5098670;27;45282;-70
2023/11/25 12:12:48;;;;;;;;;2.75;2.75;;;;;;;;5098456;27;47428;-70
2023/11/25 12:15:15;;;;;;;;;3.00;3.00;;;;;;;;5102479;27;45473;-70
2023/11/25 12:17:42;;;;;;;;;3.00;2.00;;;;;;;;5095322;27;45394;-70
2023/11/25 12:20:09;;;;;;;;;5.25;3.75;;;;;;;;5095235;27;45620;-71
2023/11/25 12:22:34;;;;;;;;;6.00;3.00;;;;;;;;5095663;27;46410;-71
2023/11/25 12:25:00;;;;;;;;;2.00;2.00;;;;;;;;5096358;27;45433;-70
2023/11/25 12:27:27;;;;;;;;;3.00;1.67;;;;;;;;5098301;27;45474;-70
2023/11/25 12:29:52;;;;;;;;;6.33;3.00;;;;;;;;5081031;27;45440;-69
2023/11/25 12:32:17;;;;;;;;;1.00;1.00;;;;;;;;5095737;27;46271;-69
2023/11/25 12:34:45;;;;;;;;;4.00;1.00;;;;;;;;5090239;27;45442;-70
2023/11/25 12:37:12;;;;;;;;;2.67;2.00;;;;;;;;5101421;27;45462;-69
2023/11/25 12:39:38;;;;;;;;;4.00;2.00;;;;;;;;5099161;27;45565;-69
2023/11/25 12:42:04;;;;;;;;;3.75;2.50;;;;;;;;5098378;27;46560;-69
2023/11/25 12:44:46;;;;;;;;;3.50;2.00;;;;;;;;5095913;27;45474;-72
2023/11/25 12:47:12;;;;;;;;;7.25;3.50;;;;;;;;5091297;27;45246;-70
2023/11/25 12:49:38;;;;;;;;;6.75;3.75;;;;;;;;5097323;27;45291;-70
2023/11/25 12:52:03;;;;;;;;;7.75;5.00;;;;;;;;5095568;27;45591;-70
2023/11/25 12:54:44;;;;;;;;;10.00;6.00;;;;;;;;5095807;27;45457;-69
2023/11/25 12:57:10;;;;;;;;;7.00;3.00;;;;;;;;5096639;27;45477;-70
2023/11/25 12:59:35;;;;;;;;;6.25;3.50;;;;;;;;5098362;27;46998;-70
2023/11/25 13:02:04;;;;;;;;;7.00;4.00;;;;;;;;5100930;27;46086;-69
2023/11/25 13:04:29;;;;;;;;;6.00;2.00;;;;;;;;5059817;27;45646;-70
2023/11/25 13:06:59;;;;;;;;;4.00;3.00;;;;;;;;5083491;27;46438;-70
2023/11/25 13:09:27;;;;;;;;;4.00;2.50;;;;;;;;5086845;27;45564;-70
2023/11/25 13:11:53;;;;;;;;;3.75;1.50;;;;;;;;5086162;27;46655;-70
2023/11/25 13:14:18;;;;;;;;;2.00;2.00;;;;;;;;5088664;27;46093;-69
2023/11/25 13:16:44;;;;;;;;;2.50;2.00;;;;;;;;5089724;27;46524;-69
2023/11/25 13:19:09;;;;;;;;;2.00;1.25;;;;;;;;5084603;27;45818;-70
2023/11/25 13:21:35;;;;;;;;;7.33;3.00;;;;;;;;5084653;27;45981;-69
2023/11/25 13:24:00;;;;;;;;;7.50;4.00;;;;;;;;5088263;27;45553;-69
2023/11/25 13:26:27;;;;;;;;;7.25;3.25;;;;;;;;5089393;27;45693;-69
2023/11/25 13:28:52;;;;;;;;;5.75;3.00;;;;;;;;5086032;27;45465;-69
2023/11/25 13:31:18;;;;;;;;;3.75;2.00;;;;;;;;5087333;27;45577;-69
2023/11/25 13:33:43;;;;;;;;;2.75;0.50;;;;;;;;5084519;27;45895;-70
2023/11/25 13:36:09;;;;;;;;;3.00;1.00;;;;;;;;5087583;27;46092;-70
2023/11/25 13:38:34;;;;;;;;;4.00;2.00;;;;;;;;5086162;27;45525;-69
2023/11/25 13:40:59;;;;;;;;;3.00;1.00;;;;;;;;5086791;27;45561;-70
2023/11/25 13:43:24;;;;;;;;;1.00;1.00;;;;;;;;5091636;27;45497;-70
2023/11/25 13:45:50;;;;;;;;;1.67;1.67;;;;;;;;5089028;27;45711;-72
2023/11/25 13:48:17;;;;;;;;;0.00;0.00;;;;;;;;5089731;27;45575;-69
2023/11/25 13:50:42;;;;;;;;;2.67;1.00;;;;;;;;5093187;27;46576;-71
2023/11/25 13:53:08;;;;;;;;;2.00;0.00;;;;;;;;5084990;27;45452;-69
2023/11/25 13:55:46;;;;;;;;;3.00;1.00;;;;;;;;5067886;27;45587;-69
2023/11/25 13:58:12;;;;;;;;;0.33;0.33;;;;;;;;5090774;27;45496;-69
2023/11/25 14:00:38;;;;;;;;;1.00;1.00;;;;;;;;5085896;27;47374;-69
2023/11/25 14:03:07;;;;;;;;;2.00;0.00;;;;;;;;5090071;27;45493;-69
2023/11/25 14:05:36;;;;;;;;;2.00;2.00;;;;;;;;5085415;27;45530;-70
2023/11/25 14:08:01;;;;;;;;;1.00;1.00;;;;;;;;5089916;27;45435;-70
2023/11/25 14:10:27;;;;;;;;;1.33;1.00;;;;;;;;5083461;27;45661;-70
2023/11/25 14:12:52;;;;;;;;;2.00;1.00;;;;;;;;5085029;27;46001;-69
2023/11/25 14:15:18;;;;;;;;;1.33;1.00;;;;;;;;5087953;27;45564;-70
2023/11/25 14:17:43;;;;;;;;;3.67;1.67;;;;;;;;5088533;27;45567;-69
2023/11/25 14:20:15;;;;;;;;;1.00;1.00;;;;;;;;5088948;27;46260;-70
2023/11/25 14:22:47;;;;;;;;;13.25;8.75;;;;;;;;5086014;27;45497;-69
2023/11/25 14:25:13;;;;;;;;;9.25;5.50;;;;;;;;5088106;27;45545;-70
2023/11/25 14:27:38;;;;;;;;;8.25;4.00;;;;;;;;5091802;27;45590;-69
2023/11/25 14:30:04;;;;;;;;;3.75;3.75;;;;;;;;5085959;27;46411;-69
2023/11/25 14:32:29;;;;;;;;;3.67;2.33;;;;;;;;5085830;27;45516;-70
2023/11/25 14:34:54;;;;;;;;;2.00;1.67;;;;;;;;5085097;27;45391;-70
2023/11/25 14:37:21;;;;;;;;;1.00;1.00;;;;;;;;5086130;27;45563;-70
2023/11/25 14:39:46;;;;;;;;;4.67;2.00;;;;;;;;5085102;27;46654;-69
2023/11/25 14:42:11;;;;;;;;;1.67;0.00;;;;;;;;5082462;27;46005;-69